Time;durP1;ratioP1;P1;durP2;ratioP2;P2;SDS_P1;SDS_P2;PMS_P1;PMS_P2;Temp;Humidity;BMP_temperature;BMP_pressure;BME280_temperature;BME280_humidity;BME280_pressure;Samples;Min_cycle;Max_cycle;Signal;HPM_P1;HPM_P2
2021/10/14 00:01:39;;;;;;;1.13;0.40;;;11.20;90.00;;;;;;5094728;28;20051;-83
2021/10/14 00:04:08;;;;;;;0.63;0.45;;;11.20;90.00;;;;;;5043638;28;20569;-83
2021/10/14 00:06:35;;;;;;;2.03;0.60;;;11.10;90.00;;;;;;5044628;28;20445;-84
2021/10/14 00:09:00;;;;;;;1.00;0.40;;;11.20;90.00;;;;;;5043817;28;20436;-81
2021/10/14 00:11:27;;;;;;;0.77;0.50;;;11.20;90.10;;;;;;5076383;28;20044;-81
2021/10/14 00:13:53;;;;;;;1.02;0.52;;;11.30;90.10;;;;;;5094358;28;20501;-81
2021/10/14 00:16:19;;;;;;;0.38;0.30;;;11.20;90.10;;;;;;5076645;28;20085;-81
2021/10/14 00:18:45;;;;;;;0.52;0.50;;;11.20;90.10;;;;;;5058322;28;20132;-83
2021/10/14 00:21:12;;;;;;;0.40;0.32;;;11.30;90.10;;;;;;5094774;28;20036;-83
2021/10/14 00:23:37;;;;;;;0.45;0.45;;;11.20;90.10;;;;;;5010646;28;20529;-83
2021/10/14 00:26:04;;;;;;;0.80;0.60;;;11.20;90.10;;;;;;5018546;28;20036;-83
2021/10/14 00:28:30;;;;;;;1.35;0.50;;;11.20;90.10;;;;;;5035191;28;20033;-80
2021/10/14 00:30:56;;;;;;;1.25;0.55;;;11.20;90.10;;;;;;5035465;28;20067;-81
2021/10/14 00:33:22;;;;;;;0.88;0.80;;;11.20;90.10;;;;;;5034423;28;20049;-81
2021/10/14 00:35:47;;;;;;;0.75;0.75;;;11.30;90.10;;;;;;5033671;28;20037;-82
2021/10/14 00:38:13;;;;;;;0.47;0.47;;;11.30;90.10;;;;;;5049869;28;20541;-81
2021/10/14 00:40:40;;;;;;;0.55;0.38;;;11.20;90.10;;;;;;5034271;28;20059;-82
2021/10/14 00:43:05;;;;;;;0.95;0.60;;;11.30;90.10;;;;;;5050404;28;20479;-82
2021/10/14 00:45:31;;;;;;;0.98;0.80;;;11.30;90.20;;;;;;5051125;28;20088;-82
2021/10/14 00:47:57;;;;;;;1.00;0.63;;;11.30;90.20;;;;;;5034542;28;20084;-81
2021/10/14 00:50:23;;;;;;;0.70;0.68;;;11.30;90.20;;;;;;5050348;28;20095;-81
2021/10/14 00:52:51;;;;;;;0.63;0.55;;;11.30;90.20;;;;;;5033598;28;20033;-82
2021/10/14 00:55:17;;;;;;;0.68;0.60;;;11.30;90.20;;;;;;5069462;28;20043;-82
2021/10/14 00:57:42;;;;;;;1.33;1.00;;;11.30;90.50;;;;;;5076767;28;20048;-81
2021/10/14 01:00:09;;;;;;;2.85;0.90;;;11.40;90.20;;;;;;5046895;28;20057;-82
2021/10/14 01:02:36;;;;;;;0.95;0.80;;;11.40;90.20;;;;;;5075342;28;20402;-81
2021/10/14 01:05:03;;;;;;;1.05;0.82;;;11.30;90.20;;;;;;5076076;28;20040;-80
2021/10/14 01:07:29;;;;;;;0.85;0.70;;;11.30;90.20;;;;;;5077185;28;20039;-82
2021/10/14 01:09:55;;;;;;;1.00;0.70;;;11.40;90.20;;;;;;5042648;28;20077;-82
2021/10/14 01:12:22;;;;;;;1.65;0.95;;;11.40;90.20;;;;;;5076347;28;20048;-82
2021/10/14 01:14:47;;;;;;;2.67;1.30;;;11.40;90.20;;;;;;5042270;28;20094;-82
2021/10/14 01:17:13;;;;;;;1.30;0.85;;;11.40;90.20;;;;;;5093779;28;20497;-82
2021/10/14 01:19:40;;;;;;;1.33;1.05;;;11.40;90.20;;;;;;5076021;28;20093;-82
2021/10/14 01:22:06;;;;;;;1.15;0.90;;;11.40;90.20;;;;;;5094282;28;20043;-82
2021/10/14 01:24:32;;;;;;;1.33;0.85;;;11.40;90.30;;;;;;5075720;28;20044;-82
2021/10/14 01:27:03;;;;;;;1.70;1.10;;;11.40;90.30;;;;;;5058085;28;20044;-82
2021/10/14 01:29:29;;;;;;;;;;;11.40;90.30;;;;;;5042866;28;20556;-82
2021/10/14 01:31:55;;;;;;;1.67;0.95;;;11.40;90.20;;;;;;5075177;28;19999;-82
2021/10/14 01:34:20;;;;;;;1.40;0.88;;;11.40;90.20;;;;;;5058210;28;20040;-82
2021/10/14 01:36:46;;;;;;;2.25;1.30;;;11.40;90.30;;;;;;5042529;28;20131;-82
2021/10/14 01:39:12;;;;;;;1.40;0.90;;;11.50;90.30;;;;;;5094787;28;20067;-82
2021/10/14 01:41:37;;;;;;;2.03;1.38;;;11.40;90.30;;;;;;5075236;28;20131;-82
2021/10/14 01:44:04;;;;;;;2.42;1.17;;;11.40;90.30;;;;;;5058120;28;20058;-82
2021/10/14 01:46:30;;;;;;;2.65;1.40;;;11.50;90.30;;;;;;5093288;28;20035;-82
2021/10/14 01:48:55;;;;;;;2.72;1.20;;;11.40;90.30;;;;;;5059469;28;20385;-83
2021/10/14 01:51:21;;;;;;;1.73;1.05;;;11.40;90.40;;;;;;5076863;28;20078;-82
2021/10/14 01:53:47;;;;;;;1.83;1.10;;;11.50;90.40;;;;;;5042272;28;20032;-82
2021/10/14 01:56:13;;;;;;;2.38;1.00;;;11.40;90.40;;;;;;5093525;28;20047;-82
2021/10/14 01:58:39;;;;;;;2.22;1.13;;;11.50;90.40;;;;;;5075825;28;20036;-82
2021/10/14 02:01:04;;;;;;;1.73;0.98;;;11.50;90.40;;;;;;5093634;28;20032;-82
2021/10/14 02:03:31;;;;;;;1.63;1.00;;;11.40;90.40;;;;;;5092589;28;20102;-82
2021/10/14 02:05:56;;;;;;;2.05;1.20;;;11.60;90.50;;;;;;5074409;28;20052;-82
2021/10/14 02:08:22;;;;;;;2.78;1.50;;;11.50;90.40;;;;;;5058501;28;20489;-82
2021/10/14 02:10:48;;;;;;;2.53;1.35;;;11.50;90.50;;;;;;5057657;28;20036;-82
2021/10/14 02:13:14;;;;;;;2.45;1.40;;;11.50;90.50;;;;;;5057765;28;20097;-82
2021/10/14 02:15:40;;;;;;;2.13;1.13;;;11.60;90.80;;;;;;5093084;28;20101;-82
2021/10/14 02:18:06;;;;;;;1.27;1.10;;;11.60;90.50;;;;;;5057643;28;20048;-82
2021/10/14 02:20:32;;;;;;;3.97;1.48;;;11.70;90.50;;;;;;5074823;28;20048;-82
2021/10/14 02:22:57;;;;;;;3.00;1.60;;;11.60;90.50;;;;;;5074335;28;20044;-82
2021/10/14 02:25:23;;;;;;;2.88;1.60;;;11.60;90.50;;;;;;5058382;28;20052;-81
2021/10/14 02:27:49;;;;;;;2.92;1.70;;;11.60;90.50;;;;;;5074821;28;20040;-81
2021/10/14 02:30:15;;;;;;;3.85;1.90;;;11.60;90.50;;;;;;5058801;28;20039;-82
2021/10/14 02:32:41;;;;;;;2.70;1.65;;;11.60;90.50;;;;;;5057325;28;20036;-82
2021/10/14 02:35:08;;;;;;;2.83;1.63;;;11.70;90.50;;;;;;5074927;28;20040;-82
2021/10/14 02:37:34;;;;;;;3.35;1.70;;;11.70;90.50;;;;;;5074364;28;20086;-82
2021/10/14 02:40:00;;;;;;;3.47;1.80;;;11.70;90.60;;;;;;5024370;28;20139;-82
2021/10/14 02:42:26;;;;;;;3.60;1.70;;;11.70;90.50;;;;;;5057421;28;20040;-82
2021/10/14 02:44:52;;;;;;;3.22;1.52;;;11.80;90.60;;;;;;5074489;28;20043;-82
2021/10/14 02:47:18;;;;;;;3.38;1.70;;;11.70;90.60;;;;;;5094874;28;20519;-82
2021/10/14 02:49:44;;;;;;;2.60;1.35;;;11.70;90.60;;;;;;5078331;28;20039;-82
2021/10/14 02:52:09;;;;;;;2.30;1.25;;;11.70;90.60;;;;;;5067209;28;20870;-81
2021/10/14 02:54:35;;;;;;;2.95;1.45;;;11.70;90.60;;;;;;5046308;28;20063;-83
2021/10/14 02:57:01;;;;;;;4.07;1.67;;;11.70;90.60;;;;;;5077712;28;20072;-83
2021/10/14 02:59:26;;;;;;;2.65;1.60;;;11.70;90.60;;;;;;5078191;28;20040;-82
2021/10/14 03:01:52;;;;;;;3.15;1.48;;;11.70;90.60;;;;;;5061437;28;20097;-83
2021/10/14 03:04:18;;;;;;;2.33;1.17;;;11.70;90.60;;;;;;5078018;28;20044;-82
2021/10/14 03:06:44;;;;;;;2.67;1.60;;;11.70;90.70;;;;;;5077456;28;20047;-82
2021/10/14 03:09:10;;;;;;;4.88;1.75;;;11.70;90.70;;;;;;5095893;28;20072;-82
2021/10/14 03:11:36;;;;;;;3.20;1.77;;;11.80;90.70;;;;;;5095756;28;20572;-82
2021/10/14 03:14:02;;;;;;;3.75;1.83;;;11.80;90.70;;;;;;5060492;28;20067;-82
2021/10/14 03:16:28;;;;;;;4.13;2.15;;;11.80;90.70;;;;;;5075986;28;20046;-82
2021/10/14 03:18:55;;;;;;;4.10;1.83;;;11.70;90.70;;;;;;5095694;28;20040;-82
2021/10/14 03:21:21;;;;;;;2.65;1.33;;;11.80;90.70;;;;;;5095510;28;20051;-82
2021/10/14 03:23:47;;;;;;;3.15;1.60;;;11.80;90.70;;;;;;5060313;28;20047;-82
2021/10/14 03:26:13;;;;;;;3.10;1.90;;;11.80;90.70;;;;;;5094969;28;20044;-82
2021/10/14 03:28:40;;;;;;;2.75;1.55;;;11.80;90.70;;;;;;5031324;28;20182;-82
2021/10/14 03:31:06;;;;;;;2.75;1.52;;;11.80;90.70;;;;;;5095121;28;20036;-82
2021/10/14 03:33:32;;;;;;;3.22;1.90;;;11.80;90.70;;;;;;5041852;28;20033;-82
2021/10/14 03:35:57;;;;;;;3.97;2.08;;;11.80;90.70;;;;;;5095551;28;20067;-81
2021/10/14 03:38:24;;;;;;;2.78;1.60;;;11.70;90.70;;;;;;5095369;28;20089;-82
2021/10/14 03:40:50;;;;;;;3.17;1.90;;;11.80;90.80;;;;;;5076563;28;20393;-82
2021/10/14 03:43:16;;;;;;;2.78;1.70;;;11.80;90.80;;;;;;5094956;28;20081;-82
2021/10/14 03:45:42;;;;;;;3.97;2.03;;;11.80;90.80;;;;;;5043235;28;20040;-81
2021/10/14 03:48:07;;;;;;;3.42;2.00;;;11.80;90.80;;;;;;5059979;28;20047;-81
2021/10/14 03:50:33;;;;;;;2.83;1.90;;;11.80;90.80;;;;;;5076844;28;20076;-82
2021/10/14 03:52:59;;;;;;;3.72;2.08;;;11.80;90.80;;;;;;5059783;28;20085;-82
2021/10/14 03:55:25;;;;;;;3.10;1.90;;;11.80;90.80;;;;;;5059953;28;20098;-83
2021/10/14 03:57:51;;;;;;;3.42;1.83;;;11.80;90.80;;;;;;5026636;28;20497;-83
2021/10/14 04:00:16;;;;;;;3.50;1.80;;;11.70;90.80;;;;;;5043289;28;20035;-82
2021/10/14 04:02:42;;;;;;;3.88;2.03;;;11.80;90.90;;;;;;5059906;28;20097;-82
2021/10/14 04:05:08;;;;;;;2.97;1.75;;;11.80;90.90;;;;;;5076468;28;20051;-82
2021/10/14 04:07:34;;;;;;;2.78;1.70;;;11.80;90.90;;;;;;5076966;28;20497;-82
2021/10/14 04:10:00;;;;;;;3.13;1.65;;;11.80;90.90;;;;;;5094337;28;20040;-83
2021/10/14 04:12:26;;;;;;;3.22;1.83;;;11.80;90.90;;;;;;5040989;28;20060;-82
2021/10/14 04:14:52;;;;;;;3.53;1.90;;;11.80;90.90;;;;;;5076456;28;20448;-82
2021/10/14 04:17:18;;;;;;;3.70;2.00;;;11.70;90.90;;;;;;5059959;28;20044;-82
2021/10/14 04:19:44;;;;;;;3.28;1.95;;;11.70;90.90;;;;;;5077380;28;20047;-82
2021/10/14 04:22:10;;;;;;;3.38;1.90;;;11.80;90.90;;;;;;5042657;28;20032;-82
2021/10/14 04:24:38;;;;;;;3.08;1.80;;;11.80;90.90;;;;;;5094115;28;20070;-82
2021/10/14 04:27:04;;;;;;;3.25;1.88;;;11.80;90.90;;;;;;5076484;28;20036;-82
2021/10/14 04:29:29;;;;;;;4.05;1.98;;;11.80;90.90;;;;;;5028349;28;20044;-83
2021/10/14 04:31:55;;;;;;;4.45;2.20;;;11.70;90.90;;;;;;5026211;28;20040;-82
2021/10/14 04:34:22;;;;;;;2.65;1.75;;;11.80;90.90;;;;;;5076264;28;20047;-82
2021/10/14 04:36:48;;;;;;;3.38;2.03;;;11.80;90.90;;;;;;5042722;28;20085;-83
2021/10/14 04:39:15;;;;;;;3.80;1.90;;;11.80;91.00;;;;;;5043250;28;20036;-83
2021/10/14 04:41:43;;;;;;;2.58;1.70;;;11.90;91.00;;;;;;5059564;28;20111;-83
2021/10/14 04:44:09;;;;;;;2.67;1.65;;;11.70;91.00;;;;;;5076070;28;20109;-83
2021/10/14 04:46:34;;;;;;;3.70;2.05;;;11.90;91.00;;;;;;5059616;28;20098;-82
2021/10/14 04:49:00;;;;;;;4.15;2.13;;;11.90;91.00;;;;;;5059585;28;20032;-83
2021/10/14 04:51:26;;;;;;;3.45;2.03;;;11.90;91.00;;;;;;5058135;28;20121;-83
2021/10/14 04:53:52;;;;;;;2.85;1.63;;;11.90;91.00;;;;;;5076101;28;20146;-83
2021/10/14 04:56:17;;;;;;;2.38;1.60;;;11.80;91.00;;;;;;5094064;28;20378;-83
2021/10/14 04:58:43;;;;;;;3.40;1.88;;;11.90;91.00;;;;;;5075603;28;20036;-84
2021/10/14 05:01:09;;;;;;;3.35;1.75;;;11.80;91.00;;;;;;5076102;28;20035;-83
2021/10/14 05:03:35;;;;;;;3.60;1.92;;;11.90;91.00;;;;;;5075572;28;20496;-83
2021/10/14 05:06:00;;;;;;;3.65;1.75;;;11.90;91.00;;;;;;5075447;28;20040;-83
2021/10/14 05:08:26;;;;;;;3.08;1.73;;;11.90;91.00;;;;;;5041712;28;20040;-83
2021/10/14 05:10:52;;;;;;;2.45;1.50;;;11.90;91.00;;;;;;5094616;28;20120;-82
2021/10/14 05:13:17;;;;;;;2.60;1.63;;;11.90;91.00;;;;;;5093968;28;20135;-83
2021/10/14 05:15:44;;;;;;;3.50;2.00;;;11.90;91.00;;;;;;5095094;28;20055;-82
2021/10/14 05:18:10;;;;;;;3.97;2.10;;;11.80;91.00;;;;;;5076202;28;20054;-83
2021/10/14 05:20:35;;;;;;;2.88;1.83;;;11.90;91.00;;;;;;5060445;28;20405;-83
2021/10/14 05:23:01;;;;;;;3.45;1.80;;;11.90;91.00;;;;;;5059903;28;20048;-84
2021/10/14 05:25:27;;;;;;;3.53;2.03;;;11.90;91.00;;;;;;5060994;28;20537;-84
2021/10/14 05:27:53;;;;;;;3.15;1.83;;;11.90;91.00;;;;;;5094526;28;20037;-84
2021/10/14 05:30:20;;;;;;;5.80;2.60;;;11.90;91.10;;;;;;5076711;28;20112;-83
2021/10/14 05:32:46;;;;;;;3.70;2.10;;;11.90;91.10;;;;;;5059562;28;20507;-84
2021/10/14 05:35:12;;;;;;;3.20;1.90;;;11.90;91.10;;;;;;5076285;28;20118;-84
2021/10/14 05:37:38;;;;;;;3.00;1.92;;;11.80;91.10;;;;;;5077730;28;20044;-84
2021/10/14 05:40:06;;;;;;;3.45;1.95;;;11.80;91.10;;;;;;5062042;28;20350;-82
2021/10/14 05:42:32;;;;;;;3.65;1.98;;;11.90;91.10;;;;;;5043321;28;20127;-85
2021/10/14 05:44:58;;;;;;;4.07;2.17;;;11.90;91.10;;;;;;5077298;28;20577;-84
2021/10/14 05:47:23;;;;;;;3.47;2.22;;;11.90;91.10;;;;;;5058403;28;20068;-84
2021/10/14 05:49:49;;;;;;;2.47;1.60;;;11.90;91.10;;;;;;5075736;28;20055;-84
2021/10/14 05:52:15;;;;;;;2.95;1.67;;;12.00;91.20;;;;;;5058447;28;20089;-84
2021/10/14 05:54:41;;;;;;;2.78;1.77;;;11.90;91.10;;;;;;5077938;28;20062;-83
2021/10/14 05:57:06;;;;;;;2.28;1.60;;;11.90;91.10;;;;;;5083190;28;20036;-84
2021/10/14 05:59:33;;;;;;;3.30;2.03;;;11.90;91.20;;;;;;5077483;28;20181;-83
2021/10/14 06:01:59;;;;;;;4.38;2.38;;;11.90;91.10;;;;;;5061145;28;20044;-82
2021/10/14 06:04:25;;;;;;;4.40;2.20;;;11.90;91.10;;;;;;5076855;28;20086;-81
2021/10/14 06:06:51;;;;;;;2.75;1.65;;;11.90;91.20;;;;;;5094834;28;20085;-80
2021/10/14 06:09:16;;;;;;;3.13;1.77;;;11.90;91.20;;;;;;5079139;28;20036;-79
2021/10/14 06:11:42;;;;;;;3.70;2.33;;;11.90;91.20;;;;;;5063974;28;20066;-81
2021/10/14 06:14:08;;;;;;;3.45;1.95;;;11.90;91.10;;;;;;5099112;28;20358;-80
2021/10/14 06:16:34;;;;;;;3.58;2.13;;;11.90;91.20;;;;;;5079749;28;20153;-79
2021/10/14 06:18:59;;;;;;;4.28;1.95;;;12.00;91.20;;;;;;5077804;28;20043;-82
2021/10/14 06:21:25;;;;;;;3.90;2.40;;;11.90;91.20;;;;;;5029275;28;20054;-82
2021/10/14 06:23:51;;;;;;;4.88;2.42;;;12.00;91.20;;;;;;5077069;28;20044;-81
2021/10/14 06:26:17;;;;;;;3.33;1.88;;;12.00;91.20;;;;;;5095286;28;20032;-82
2021/10/14 06:28:42;;;;;;;4.05;2.10;;;12.00;91.20;;;;;;5087282;28;20040;-82
2021/10/14 06:31:08;;;;;;;4.00;2.47;;;12.00;91.20;;;;;;5046669;28;20370;-82
2021/10/14 06:33:34;;;;;;;3.63;2.13;;;12.00;91.20;;;;;;5076101;28;20054;-81
2021/10/14 06:36:00;;;;;;;4.10;2.40;;;12.00;91.20;;;;;;5079452;28;20044;-82
2021/10/14 06:38:25;;;;;;;4.55;2.20;;;12.10;91.20;;;;;;5059884;28;20044;-82
2021/10/14 06:40:51;;;;;;;4.35;2.17;;;12.00;91.20;;;;;;5063348;28;20405;-80
2021/10/14 06:43:17;;;;;;;4.75;2.47;;;12.10;91.30;;;;;;5074328;28;20040;-80
2021/10/14 06:45:43;;;;;;;3.88;2.30;;;12.10;91.30;;;;;;5075060;28;20378;-80
2021/10/14 06:48:08;;;;;;;4.78;2.38;;;12.10;91.30;;;;;;5041943;28;20043;-82
2021/10/14 06:53:42;;;;;;;3.25;2.00;;;12.10;91.30;;;;;;4913603;29;20036;-80
2021/10/14 06:56:11;;;;;;;5.05;2.40;;;12.10;91.30;;;;;;4903309;29;20618;-85
2021/10/14 06:58:37;;;;;;;4.03;2.50;;;12.10;91.30;;;;;;4881585;29;20146;-82
2021/10/14 07:01:02;;;;;;;4.47;2.35;;;12.10;91.30;;;;;;4898057;29;20494;-81
2021/10/14 07:03:28;;;;;;;4.95;2.60;;;12.10;91.30;;;;;;4901373;29;20538;-80
2021/10/14 07:05:54;;;;;;;4.80;2.67;;;12.20;91.30;;;;;;4913625;29;20391;-80
2021/10/14 07:08:20;;;;;;;5.43;2.58;;;12.10;91.30;;;;;;4913543;29;20042;-80
2021/10/14 07:10:46;;;;;;;4.63;2.42;;;12.30;91.30;;;;;;4882059;29;20048;-79
2021/10/14 07:13:14;;;;;;;4.20;2.50;;;12.20;91.30;;;;;;4875449;29;20047;-77
2021/10/14 07:15:40;;;;;;;4.75;2.78;;;12.20;91.30;;;;;;4876430;29;20193;-80
2021/10/14 07:18:06;;;;;;;5.55;2.55;;;12.20;91.30;;;;;;4882586;29;20585;-80
2021/10/14 07:21:15;;;;;;;3.88;2.28;;;12.30;91.30;;;;;;4901474;29;20409;-84
2021/10/14 07:23:41;;;;;;;4.43;2.38;;;12.20;91.30;;;;;;4835176;29;20160;-83
2021/10/14 07:26:07;;;;;;;5.70;2.70;;;12.30;91.30;;;;;;4824147;29;20057;-82
2021/10/14 07:28:33;;;;;;;6.07;2.90;;;12.30;91.60;;;;;;4853118;29;20030;-80
2021/10/14 07:30:58;;;;;;;4.70;2.55;;;12.30;91.30;;;;;;4908618;28;20141;-81
2021/10/14 07:33:24;;;;;;;6.20;2.88;;;12.30;91.30;;;;;;4948624;28;20229;-80
2021/10/14 07:35:50;;;;;;;5.93;2.80;;;12.30;91.30;;;;;;4959736;28;20420;-79
2021/10/14 07:38:16;;;;;;;3.95;2.28;;;12.40;91.30;;;;;;4945523;28;20082;-80
2021/10/14 07:40:43;;;;;;;4.82;2.60;;;12.30;91.30;;;;;;4956926;28;20070;-83
2021/10/14 07:43:15;;;;;;;3.97;2.17;;;12.40;91.30;;;;;;4960939;28;20057;-85
2021/10/14 07:45:43;;;;;;;4.30;2.50;;;12.30;91.30;;;;;;4976181;28;20559;-82
2021/10/14 07:49:12;;;;;;;4.03;2.25;;;12.40;91.30;;;;;;5006044;28;20085;-84
2021/10/14 07:51:38;;;;;;;3.80;2.20;;;12.40;91.40;;;;;;4959804;28;20070;-85
2021/10/14 07:54:05;;;;;;;3.78;2.47;;;12.40;91.30;;;;;;5038147;28;20081;-86
2021/10/14 07:56:35;;;;;;;4.78;2.60;;;12.40;91.30;;;;;;5044296;28;20064;-88
2021/10/14 07:59:27;;;;;;;3.97;2.38;;;12.40;91.30;;;;;;5053196;28;20532;-87
2021/10/14 08:01:53;;;;;;;5.13;2.75;;;12.50;91.40;;;;;;5048612;28;20043;-84
2021/10/14 08:04:19;;;;;;;5.15;2.22;;;12.50;91.40;;;;;;5066626;28;20040;-86
2021/10/14 08:06:45;;;;;;;4.60;2.85;;;12.50;91.40;;;;;;5062015;28;20489;-87
2021/10/14 08:09:11;;;;;;;4.28;2.55;;;12.40;91.30;;;;;;5046147;28;20039;-84
2021/10/14 08:11:42;;;;;;;3.92;2.35;;;12.50;91.40;;;;;;5096021;28;20040;-82
2021/10/14 08:14:08;;;;;;;4.68;2.53;;;12.60;91.40;;;;;;5063454;28;20044;-84
2021/10/14 08:16:50;;;;;;;3.95;2.45;;;12.50;91.40;;;;;;5063646;28;20043;-83
2021/10/14 08:19:15;;;;;;;4.75;2.35;;;12.60;91.40;;;;;;5037932;28;20135;-82
2021/10/14 08:21:45;;;;;;;4.30;2.60;;;12.60;91.40;;;;;;5038472;28;20080;-87
2021/10/14 08:24:11;;;;;;;3.97;2.50;;;12.60;91.40;;;;;;5043080;28;20045;-83
2021/10/14 08:26:36;;;;;;;3.42;2.20;;;12.70;91.40;;;;;;5067919;28;20099;-80
2021/10/14 08:29:02;;;;;;;4.75;2.70;;;12.60;91.40;;;;;;5062017;28;20056;-82
2021/10/14 08:31:28;;;;;;;5.20;2.90;;;12.70;91.40;;;;;;5045988;28;20060;-80
2021/10/14 08:33:54;;;;;;;5.88;2.60;;;12.70;91.40;;;;;;5045057;28;20100;-82
2021/10/14 08:36:20;;;;;;;5.28;3.00;;;12.70;91.40;;;;;;4998247;28;20105;-82
2021/10/14 08:39:07;;;;;;;5.88;2.63;;;12.70;91.40;;;;;;4969486;28;20052;-94
2021/10/14 08:45:22;;;;;;;3.78;2.22;;;12.80;91.40;;;;;;4991851;28;20051;-87
2021/10/14 08:47:48;;;;;;;3.05;2.10;;;12.80;91.30;;;;;;4981519;28;20042;-80
2021/10/14 08:50:14;;;;;;;4.88;2.53;;;12.80;91.30;;;;;;5010523;28;20042;-84
2021/10/14 08:52:39;;;;;;;5.13;2.33;;;12.80;91.50;;;;;;5015191;28;20045;-82
2021/10/14 08:56:29;;;;;;;4.32;2.53;;;12.90;91.40;;;;;;5016148;28;20052;-87
2021/10/14 08:59:01;;;;;;;3.78;2.40;;;12.90;91.40;;;;;;4959258;28;20051;-84
2021/10/14 09:05:30;;;;;;;3.42;1.98;;;12.90;91.40;;;;;;4952564;29;20054;-83
2021/10/14 09:07:56;;;;;;;3.63;2.30;;;13.00;91.40;;;;;;4938092;29;20110;-83
2021/10/14 09:10:22;;;;;;;4.07;2.58;;;13.00;91.30;;;;;;4937738;29;20434;-86
2021/10/14 09:12:47;;;;;;;5.18;2.97;;;13.00;91.30;;;;;;4899640;29;20064;-79
2021/10/14 09:15:16;;;;;;;5.35;2.78;;;13.10;91.30;;;;;;4915482;29;20569;-82
2021/10/14 09:17:44;;;;;;;4.80;2.50;;;13.10;91.30;;;;;;4898988;29;20114;-79
2021/10/14 09:20:25;;;;;;;5.40;3.03;;;13.20;91.30;;;;;;4915828;29;20136;-82
2021/10/14 09:23:12;;;;;;;5.13;2.55;;;13.30;91.20;;;;;;4915138;29;20052;-84
2021/10/14 09:25:49;;;;;;;4.45;2.67;;;13.40;91.20;;;;;;4915060;29;20052;-85
2021/10/14 09:28:22;;;;;;;4.45;2.25;;;13.40;91.20;;;;;;4899879;29;20040;-85
2021/10/14 09:30:51;;;;;;;3.53;1.90;;;13.30;91.20;;;;;;4971908;28;20043;-82
2021/10/14 09:33:41;;;;;;;4.47;2.63;;;13.40;91.20;;;;;;4940682;28;20221;-83
2021/10/14 09:47:17;;;;;;;4.10;2.42;;;13.40;91.20;;;;;;4963216;28;20043;-89
2021/10/14 09:50:39;;;;;;;4.45;2.38;;;13.40;91.20;;;;;;4985237;28;20068;-87
2021/10/14 09:53:08;;;;;;;4.28;2.33;;;13.40;91.20;;;;;;5024912;28;20035;-84
2021/10/14 09:55:35;;;;;;;4.57;2.03;;;13.30;91.20;;;;;;4998753;28;20057;-85
2021/10/14 09:58:02;;;;;;;2.53;1.98;;;13.40;91.20;;;;;;4999490;28;20103;-82
2021/10/14 10:00:50;;;;;;;4.05;2.42;;;13.40;91.20;;;;;;5000142;28;20053;-84
2021/10/14 10:03:19;;;;;;;5.15;2.13;;;13.40;91.50;;;;;;5004082;28;20049;-83
2021/10/14 10:05:47;;;;;;;4.25;2.42;;;13.50;91.30;;;;;;4998441;28;20049;-83
2021/10/14 10:08:23;;;;;;;4.00;2.58;;;13.50;91.30;;;;;;5031503;28;20164;-82
2021/10/14 10:14:15;;;;;;;4.40;2.60;;;13.60;91.30;;;;;;4973084;28;20038;-82
2021/10/14 10:16:59;;;;;;;3.85;2.20;;;13.60;91.30;;;;;;4951342;29;20067;-84
2021/10/14 10:19:46;;;;;;;4.53;2.60;;;13.70;91.30;;;;;;4934532;29;20035;-85
2021/10/14 10:22:29;;;;;;;4.95;2.88;;;13.60;91.30;;;;;;4934379;29;20486;-84
2021/10/14 10:24:57;;;;;;;4.88;2.75;;;13.70;91.30;;;;;;4950807;29;20052;-81
2021/10/14 10:27:38;;;;;;;4.45;2.53;;;13.80;91.30;;;;;;4954538;29;20048;-86
2021/10/14 10:30:04;;;;;;;3.63;2.33;;;13.80;91.30;;;;;;4938413;29;20141;-84
2021/10/14 10:32:46;;;;;;;4.65;2.75;;;13.80;91.20;;;;;;4953905;29;20039;-88
2021/10/14 10:35:53;;;;;;;5.55;2.60;;;13.80;91.20;;;;;;4937549;29;20055;-87
2021/10/14 10:38:26;;;;;;;4.65;2.60;;;14.00;91.20;;;;;;4933077;29;20157;-83
2021/10/14 10:40:55;;;;;;;4.22;2.67;;;14.00;91.20;;;;;;4936637;29;20043;-82
2021/10/14 10:43:48;;;;;;;4.70;2.50;;;13.90;91.10;;;;;;4956659;28;20517;-84
2021/10/14 10:46:17;;;;;;;5.68;3.08;;;14.10;91.10;;;;;;4976394;28;20110;-84
2021/10/14 10:48:44;;;;;;;4.72;2.90;;;14.10;91.00;;;;;;5016493;28;20046;-80
2021/10/14 10:51:26;;;;;;;6.43;3.20;;;14.20;91.00;;;;;;5078678;28;20063;-80
2021/10/14 10:53:52;;;;;;;5.10;3.10;;;14.30;91.00;;;;;;5078230;28;20105;-81
2021/10/14 10:56:34;;;;;;;5.43;3.25;;;14.30;90.90;;;;;;5078055;28;20053;-81
2021/10/14 10:59:01;;;;;;;4.78;2.97;;;14.30;90.90;;;;;;5100670;28;20056;-81
2021/10/14 11:01:28;;;;;;;5.82;3.42;;;14.40;90.90;;;;;;5085693;28;20106;-80
2021/10/14 11:03:59;;;;;;;5.63;3.30;;;14.50;90.90;;;;;;5099743;28;20058;-80
2021/10/14 11:06:27;;;;;;;5.63;3.40;;;14.40;90.80;;;;;;5064131;28;20047;-81
2021/10/14 11:08:54;;;;;;;5.65;3.50;;;14.50;90.90;;;;;;5097794;28;20075;-81
2021/10/14 11:11:21;;;;;;;5.47;3.83;;;14.60;90.80;;;;;;5102149;28;20501;-81
2021/10/14 11:13:50;;;;;;;6.07;3.90;;;14.50;90.80;;;;;;5101206;28;20119;-80
2021/10/14 11:16:17;;;;;;;4.88;3.33;;;14.60;90.80;;;;;;5099324;28;20039;-81
2021/10/14 11:18:46;;;;;;;4.95;3.30;;;14.60;90.80;;;;;;5084947;28;20051;-81
2021/10/14 11:21:14;;;;;;;5.05;3.05;;;14.60;90.80;;;;;;5086205;28;20056;-81
2021/10/14 11:23:44;;;;;;;4.45;2.70;;;14.60;90.80;;;;;;5057860;28;20134;-81
2021/10/14 11:26:35;;;;;;;3.97;2.43;;;14.70;90.80;;;;;;5078957;28;20059;-85
2021/10/14 11:32:00;;;;;;;3.40;2.10;;;14.80;90.90;;;;;;5016280;28;20121;-85
2021/10/14 11:34:28;;;;;;;3.97;2.42;;;14.80;90.80;;;;;;4998641;28;20048;-81
2021/10/14 11:36:57;;;;;;;3.47;2.25;;;14.80;90.80;;;;;;5002227;28;20042;-83
2021/10/14 11:39:32;;;;;;;4.15;2.45;;;14.80;90.80;;;;;;4973925;28;20133;-83
2021/10/14 11:42:01;;;;;;;4.28;2.58;;;14.90;90.80;;;;;;4974240;28;20086;-83
2021/10/14 11:44:36;;;;;;;3.97;2.72;;;14.90;90.80;;;;;;4941914;28;20129;-85
2021/10/14 11:47:08;;;;;;;5.55;3.17;;;15.10;90.80;;;;;;4956939;28;20161;-80
2021/10/14 11:49:37;;;;;;;4.18;2.60;;;15.00;90.60;;;;;;4956842;28;20046;-81
2021/10/14 11:52:05;;;;;;;4.25;2.40;;;15.10;90.60;;;;;;4884431;29;20041;-85
2021/10/14 11:54:35;;;;;;;3.85;2.55;;;15.10;90.60;;;;;;4853055;29;20210;-85
2021/10/14 11:57:01;;;;;;;3.78;2.70;;;15.10;90.60;;;;;;4899464;29;20052;-82
2021/10/14 11:59:32;;;;;;;3.97;2.60;;;15.10;90.60;;;;;;4899118;29;20060;-85
2021/10/14 12:02:02;;;;;;;;;;;15.20;90.60;;;;;;4914330;29;20103;-84
2021/10/14 12:04:39;;;;;;;4.22;2.55;;;15.20;90.50;;;;;;4939795;29;19926;-85
2021/10/14 12:07:05;;;;;;;5.00;2.65;;;15.30;90.50;;;;;;4922928;29;20051;-83
2021/10/14 12:09:31;;;;;;;4.50;2.63;;;15.30;90.50;;;;;;4924108;29;20067;-83
2021/10/14 12:11:59;;;;;;;3.30;1.98;;;15.30;90.50;;;;;;4958106;29;20043;-83
2021/10/14 12:14:28;;;;;;;4.43;2.38;;;15.30;90.50;;;;;;4957545;29;20142;-85
2021/10/14 12:17:10;;;;;;;3.80;2.63;;;15.30;90.50;;;;;;4979138;28;20053;-79
2021/10/14 12:19:40;;;;;;;4.65;2.75;;;15.20;90.80;;;;;;4994066;28;20042;-84
2021/10/14 12:22:08;;;;;;;4.20;2.53;;;15.20;90.50;;;;;;5002707;28;20058;-86
2021/10/14 12:24:59;;;;;;;3.75;2.30;;;15.30;90.60;;;;;;5018821;28;20088;-83
2021/10/14 12:28:16;;;;;;;4.20;2.78;;;15.30;90.60;;;;;;5017344;28;20522;-82
2021/10/14 12:30:42;;;;;;;4.13;2.60;;;15.20;90.60;;;;;;5078629;28;20040;-84
2021/10/14 12:33:17;;;;;;;3.70;2.30;;;15.30;90.60;;;;;;5064571;28;20046;-81
2021/10/14 12:35:53;;;;;;;4.00;2.63;;;15.30;90.60;;;;;;5084453;28;20044;-80
2021/10/14 12:38:42;;;;;;;3.92;2.78;;;15.30;90.50;;;;;;5098155;28;20142;-88
2021/10/14 12:41:15;;;;;;;5.47;3.10;;;15.20;90.50;;;;;;5066365;28;20171;-82
2021/10/14 12:43:57;;;;;;;4.93;3.13;;;15.40;90.40;;;;;;5074999;28;20048;-81
2021/10/14 12:46:54;;;;;;;4.35;2.97;;;15.40;90.40;;;;;;5084474;28;20066;-81
2021/10/14 12:49:36;;;;;;;3.80;2.70;;;15.50;90.40;;;;;;5073746;28;20101;-79
2021/10/14 12:52:16;;;;;;;4.28;2.90;;;15.50;90.30;;;;;;5097510;28;20048;-79
2021/10/14 12:54:42;;;;;;;5.97;3.42;;;15.50;90.20;;;;;;5063425;28;20195;-86
2021/10/14 12:57:08;;;;;;;4.95;3.15;;;15.40;90.20;;;;;;5043768;28;20041;-82
2021/10/14 12:59:38;;;;;;;4.25;3.15;;;15.40;90.30;;;;;;5060147;28;20068;-82
2021/10/14 13:02:04;;;;;;;4.88;3.53;;;15.40;90.30;;;;;;5023493;28;20053;-81
2021/10/14 13:04:31;;;;;;;4.28;3.05;;;15.40;90.30;;;;;;5028465;28;20048;-79
2021/10/14 13:06:56;;;;;;;4.70;3.20;;;15.40;90.40;;;;;;5023691;28;20502;-81
2021/10/14 13:09:24;;;;;;;4.43;2.95;;;15.30;90.40;;;;;;5027594;28;20044;-80
2021/10/14 13:11:51;;;;;;;4.07;2.55;;;15.30;90.40;;;;;;5040318;28;20041;-80
2021/10/14 13:14:17;;;;;;;3.78;2.58;;;15.30;90.40;;;;;;5035957;28;20118;-83
2021/10/14 13:16:42;;;;;;;4.47;2.85;;;15.40;90.40;;;;;;5049408;28;20045;-80
2021/10/14 13:19:09;;;;;;;4.38;3.05;;;15.40;90.40;;;;;;5060013;28;20045;-80
2021/10/14 13:21:36;;;;;;;5.40;3.08;;;15.40;90.30;;;;;;5046561;28;20044;-78
2021/10/14 13:24:02;;;;;;;5.22;3.50;;;15.50;90.30;;;;;;5018135;28;20061;-81
2021/10/14 13:26:31;;;;;;;4.85;3.05;;;15.50;90.30;;;;;;5030549;28;20084;-78